หน้าหลัก
METAR-TAF:

METAR-TAF

ท่าอากาศยาน :

ท่าอากาศยานนานาชาติวัตไต

เวียงจันทน์, ลาว

ละติจูด: 17-57N, ลองจิจูด: 102-34E, ความสูง: 171 ม.

การสังเกตสภาพอากาศปัจจุบัน

รายงานได้ทำขึ้นเมื่อ 21 นาทีที่แล้ว ณ เวลา 23:30 UTC
ลมสงบ
อุณหภูมิ 24°C
ความชื้น 78%
ความกดอากาศ 1005 hPa
ทัศนวิสัย: 6000 ม.
มีเมฆน้อยที่ความสูง 20000 ฟุต

METAR: VLVT 182330Z 00000KT 6000 FEW200 24/20 Q1005 NOSIG

เวลา: 06:51 (23:51 UTC)

การพยากรณ์

รายงานได้ทำขึ้นเมื่อ 51 นาทีที่แล้ว ณ เวลา 23:00 UTC
การพยากรณ์มีผลตั้งแต่วันที่ 19 ณ เวลา 00 UTC จนถึงวันที่ 19 ณ เวลา 24 UTC
ลม 4 นอตจากตะวันตก/ตะวันตกเฉียงใต้
ทัศนวิสัย: 7000 ม.
มีเมฆน้อยที่ความสูง 2000 ฟุต
มีเมฆน้อยที่ความสูง 20000 ฟุต

TAF: VLVT 182300Z 1900/1924 24004KT 7000 FEW020 FEW200

สังเกตการณ์สภาพอากาศและพยากรณ์อากาศของสนามบินมากกว่า 4000 แห่ง (รายงาน METAR และ TAF).

สถานีที่ดูได้จะแสดงไว้ด้วยจุดสีเหลืองและสีแดงบนแผนที่.

เลื่อนเมาส์ไปเหนือจุดเพื่อดูชื่อสถานี.

แล้วคลิกเพื่อดูสังเกตการณ์และการพยากรณ์สภาพอากาศ.

ในการเปลี่ยนแผนที่: คลิกที่ปุ่มสีเขียวที่มีกากบาทสีดำเพื่อซูมเข้า; ที่ปุ่มสีเขียวที่มีขีดเพื่อซูมออก; หรือที่ลูกศรสีเขียวเพื่อไปยังแผนที่ที่อยู่ติดกัน.


METAR-TAF: